sensor_id;sensor_type;location;lat;lon;timestamp;pressure;altitude;pressure_sealevel;temperature;humidity
2268;BME280;11052;43.338;25.502;2022-07-29T00:01:19;100557.97;;;21.53;100.00
2268;BME280;11052;43.338;25.502;2022-07-29T00:03:46;100553.41;;;21.55;100.00
2268;BME280;11052;43.338;25.502;2022-07-29T00:06:13;100556.28;;;21.52;100.00
2268;BME280;11052;43.338;25.502;2022-07-29T00:08:41;100548.88;;;21.57;100.00
2268;BME280;11052;43.338;25.502;2022-07-29T00:11:10;100553.97;;;21.47;100.00
2268;BME280;11052;43.338;25.502;2022-07-29T00:13:37;100554.22;;;21.32;100.00
2268;BME280;11052;43.338;25.502;2022-07-29T00:16:04;100552.09;;;21.11;100.00
2268;BME280;11052;43.338;25.502;2022-07-29T00:18:31;100544.63;;;21.05;100.00
2268;BME280;11052;43.338;25.502;2022-07-29T00:20:59;100547.34;;;20.91;100.00
2268;BME280;11052;43.338;25.502;2022-07-29T00:23:26;100551.16;;;20.87;100.00
2268;BME280;11052;43.338;25.502;2022-07-29T00:25:53;100546.31;;;20.93;100.00
2268;BME280;11052;43.338;25.502;2022-07-29T00:28:22;100554.53;;;21.02;100.00
2268;BME280;11052;43.338;25.502;2022-07-29T00:30:49;100547.97;;;21.07;100.00
2268;BME280;11052;43.338;25.502;2022-07-29T00:33:16;100555.69;;;21.10;100.00
2268;BME280;11052;43.338;25.502;2022-07-29T00:35:43;100548.94;;;21.06;100.00
2268;BME280;11052;43.338;25.502;2022-07-29T00:38:10;100546.28;;;21.06;100.00
2268;BME280;11052;43.338;25.502;2022-07-29T00:40:37;100541.25;;;21.03;100.00
2268;BME280;11052;43.338;25.502;2022-07-29T00:43:05;100534.41;;;20.88;100.00
2268;BME280;11052;43.338;25.502;2022-07-29T00:45:34;100535.66;;;20.82;100.00
2268;BME280;11052;43.338;25.502;2022-07-29T00:48:01;100522.84;;;20.78;100.00
2268;BME280;11052;43.338;25.502;2022-07-29T00:50:30;100519.25;;;20.79;100.00
2268;BME280;11052;43.338;25.502;2022-07-29T00:52:58;100517.47;;;20.79;100.00
2268;BME280;11052;43.338;25.502;2022-07-29T00:55:25;100517.31;;;20.81;100.00
2268;BME280;11052;43.338;25.502;2022-07-29T00:57:52;100508.25;;;20.85;100.00
2268;BME280;11052;43.338;25.502;2022-07-29T01:00:22;100517.31;;;20.93;100.00
2268;BME280;11052;43.338;25.502;2022-07-29T01:02:51;100518.69;;;20.86;100.00
2268;BME280;11052;43.338;25.502;2022-07-29T01:05:20;100516.16;;;20.85;100.00
2268;BME280;11052;43.338;25.502;2022-07-29T01:07:50;100517.94;;;20.84;100.00
2268;BME280;11052;43.338;25.502;2022-07-29T01:10:19;100517.41;;;20.92;100.00
2268;BME280;11052;43.338;25.502;2022-07-29T01:12:50;100512.03;;;20.93;100.00
2268;BME280;11052;43.338;25.502;2022-07-29T01:15:18;100510.56;;;20.89;100.00
2268;BME280;11052;43.338;25.502;2022-07-29T01:17:53;100508.78;;;20.90;100.00
2268;BME280;11052;43.338;25.502;2022-07-29T01:20:27;100516.25;;;20.83;100.00
2268;BME280;11052;43.338;25.502;2022-07-29T01:23:28;100506.28;;;20.76;100.00
2268;BME280;11052;43.338;25.502;2022-07-29T01:26:17;100511.66;;;20.74;100.00
2268;BME280;11052;43.338;25.502;2022-07-29T01:28:58;100512.50;;;20.75;100.00
2268;BME280;11052;43.338;25.502;2022-07-29T01:31:31;100516.19;;;20.72;100.00
2268;BME280;11052;43.338;25.502;2022-07-29T01:34:03;100514.59;;;20.70;100.00
2268;BME280;11052;43.338;25.502;2022-07-29T01:36:35;100521.78;;;20.68;100.00
2268;BME280;11052;43.338;25.502;2022-07-29T01:39:14;100517.34;;;20.68;100.00
2268;BME280;11052;43.338;25.502;2022-07-29T01:41:49;100518.50;;;20.64;100.00
2268;BME280;11052;43.338;25.502;2022-07-29T01:44:22;100515.03;;;20.64;100.00
2268;BME280;11052;43.338;25.502;2022-07-29T01:46:56;100524.94;;;20.60;100.00
2268;BME280;11052;43.338;25.502;2022-07-29T01:49:28;100522.19;;;20.61;100.00
2268;BME280;11052;43.338;25.502;2022-07-29T01:51:59;100520.28;;;20.64;100.00
2268;BME280;11052;43.338;25.502;2022-07-29T01:54:32;100523.03;;;20.62;100.00
2268;BME280;11052;43.338;25.502;2022-07-29T01:57:01;100526.50;;;20.63;100.00
2268;BME280;11052;43.338;25.502;2022-07-29T01:59:33;100520.59;;;20.46;100.00
2268;BME280;11052;43.338;25.502;2022-07-29T02:02:01;100522.31;;;20.20;100.00
2268;BME280;11052;43.338;25.502;2022-07-29T02:04:29;100527.72;;;20.05;100.00
2268;BME280;11052;43.338;25.502;2022-07-29T02:07:02;100526.03;;;20.04;100.00
2268;BME280;11052;43.338;25.502;2022-07-29T02:09:30;100536.97;;;19.97;100.00
2268;BME280;11052;43.338;25.502;2022-07-29T02:11:59;100537.06;;;19.96;100.00
2268;BME280;11052;43.338;25.502;2022-07-29T02:14:30;100538.75;;;19.84;100.00
2268;BME280;11052;43.338;25.502;2022-07-29T02:17:01;100535.66;;;19.78;100.00
2268;BME280;11052;43.338;25.502;2022-07-29T02:19:31;100533.78;;;19.80;100.00
2268;BME280;11052;43.338;25.502;2022-07-29T02:22:00;100525.03;;;19.79;100.00
2268;BME280;11052;43.338;25.502;2022-07-29T02:24:28;100537.25;;;19.80;100.00
2268;BME280;11052;43.338;25.502;2022-07-29T02:26:58;100527.88;;;19.76;100.00
2268;BME280;11052;43.338;25.502;2022-07-29T02:29:27;100532.59;;;19.71;100.00
2268;BME280;11052;43.338;25.502;2022-07-29T02:31:57;100541.22;;;19.73;100.00
2268;BME280;11052;43.338;25.502;2022-07-29T02:34:28;100536.47;;;19.51;100.00
2268;BME280;11052;43.338;25.502;2022-07-29T02:36:56;100539.09;;;19.51;100.00
2268;BME280;11052;43.338;25.502;2022-07-29T02:39:24;100543.78;;;19.46;100.00
2268;BME280;11052;43.338;25.502;2022-07-29T02:41:55;100539.47;;;19.45;100.00
2268;BME280;11052;43.338;25.502;2022-07-29T02:44:25;100539.94;;;19.38;100.00
2268;BME280;11052;43.338;25.502;2022-07-29T02:46:56;100535.44;;;19.40;100.00
2268;BME280;11052;43.338;25.502;2022-07-29T02:49:33;100531.84;;;19.41;100.00
2268;BME280;11052;43.338;25.502;2022-07-29T02:52:04;100528.47;;;19.39;100.00
2268;BME280;11052;43.338;25.502;2022-07-29T02:54:38;100532.81;;;19.40;100.00
2268;BME280;11052;43.338;25.502;2022-07-29T02:57:13;100534.19;;;19.45;100.00
2268;BME280;11052;43.338;25.502;2022-07-29T02:59:42;100532.50;;;19.44;100.00
2268;BME280;11052;43.338;25.502;2022-07-29T03:02:11;100537.69;;;19.46;100.00
2268;BME280;11052;43.338;25.502;2022-07-29T03:04:42;100539.16;;;19.50;100.00
2268;BME280;11052;43.338;25.502;2022-07-29T03:07:11;100545.47;;;19.47;100.00
2268;BME280;11052;43.338;25.502;2022-07-29T03:09:41;100544.53;;;19.48;100.00
2268;BME280;11052;43.338;25.502;2022-07-29T03:12:10;100541.81;;;19.50;100.00
2268;BME280;11052;43.338;25.502;2022-07-29T03:14:38;100551.38;;;19.51;100.00
2268;BME280;11052;43.338;25.502;2022-07-29T03:17:06;100549.13;;;19.45;100.00
2268;BME280;11052;43.338;25.502;2022-07-29T03:19:34;100555.34;;;19.29;100.00
2268;BME280;11052;43.338;25.502;2022-07-29T03:22:02;100563.72;;;19.22;100.00
2268;BME280;11052;43.338;25.502;2022-07-29T03:24:31;100560.22;;;19.21;100.00
2268;BME280;11052;43.338;25.502;2022-07-29T03:26:59;100562.28;;;19.30;100.00
2268;BME280;11052;43.338;25.502;2022-07-29T03:29:27;100566.50;;;19.33;100.00
2268;BME280;11052;43.338;25.502;2022-07-29T03:31:55;100568.69;;;19.26;100.00
2268;BME280;11052;43.338;25.502;2022-07-29T03:34:22;100568.25;;;19.06;100.00
2268;BME280;11052;43.338;25.502;2022-07-29T03:36:50;100567.75;;;19.13;100.00
2268;BME280;11052;43.338;25.502;2022-07-29T03:39:22;100568.41;;;19.17;100.00
2268;BME280;11052;43.338;25.502;2022-07-29T03:41:53;100577.50;;;19.25;100.00
2268;BME280;11052;43.338;25.502;2022-07-29T03:44:22;100578.53;;;19.23;100.00
2268;BME280;11052;43.338;25.502;2022-07-29T03:46:51;100581.81;;;19.26;100.00
2268;BME280;11052;43.338;25.502;2022-07-29T03:49:21;100581.34;;;19.34;100.00
2268;BME280;11052;43.338;25.502;2022-07-29T03:51:50;100577.50;;;19.40;100.00
2268;BME280;11052;43.338;25.502;2022-07-29T03:54:19;100581.25;;;19.50;100.00
2268;BME280;11052;43.338;25.502;2022-07-29T03:56:48;100585.03;;;19.60;100.00
2268;BME280;11052;43.338;25.502;2022-07-29T03:59:18;100588.84;;;19.69;100.00
2268;BME280;11052;43.338;25.502;2022-07-29T04:01:48;100580.47;;;19.76;100.00
2268;BME280;11052;43.338;25.502;2022-07-29T04:04:16;100587.25;;;19.80;100.00
2268;BME280;11052;43.338;25.502;2022-07-29T04:06:45;100589.28;;;19.89;100.00
2268;BME280;11052;43.338;25.502;2022-07-29T04:09:13;100583.31;;;20.00;100.00
2268;BME280;11052;43.338;25.502;2022-07-29T04:11:42;100585.97;;;20.13;100.00
2268;BME280;11052;43.338;25.502;2022-07-29T04:14:09;100582.22;;;20.17;100.00
2268;BME280;11052;43.338;25.502;2022-07-29T04:16:36;100582.75;;;20.22;100.00
2268;BME280;11052;43.338;25.502;2022-07-29T04:19:04;100576.25;;;20.27;100.00
2268;BME280;11052;43.338;25.502;2022-07-29T04:21:36;100581.19;;;20.32;100.00
2268;BME280;11052;43.338;25.502;2022-07-29T04:24:03;100582.53;;;20.39;100.00
2268;BME280;11052;43.338;25.502;2022-07-29T04:26:31;100581.94;;;20.34;100.00
2268;BME280;11052;43.338;25.502;2022-07-29T04:29:00;100585.19;;;20.52;100.00
2268;BME280;11052;43.338;25.502;2022-07-29T04:31:27;100584.06;;;20.69;100.00
2268;BME280;11052;43.338;25.502;2022-07-29T04:33:54;100588.59;;;20.92;100.00
2268;BME280;11052;43.338;25.502;2022-07-29T04:36:21;100588.06;;;21.12;100.00
2268;BME280;11052;43.338;25.502;2022-07-29T04:38:49;100593.13;;;21.41;100.00
2268;BME280;11052;43.338;25.502;2022-07-29T04:41:16;100593.56;;;21.71;100.00
2268;BME280;11052;43.338;25.502;2022-07-29T04:43:44;100596.22;;;21.95;100.00
2268;BME280;11052;43.338;25.502;2022-07-29T04:46:16;100593.13;;;22.38;100.00
2268;BME280;11052;43.338;25.502;2022-07-29T04:48:45;100599.19;;;22.73;100.00
2268;BME280;11052;43.338;25.502;2022-07-29T04:51:14;100597.72;;;23.04;100.00
2268;BME280;11052;43.338;25.502;2022-07-29T04:53:41;100597.13;;;23.45;100.00
2268;BME280;11052;43.338;25.502;2022-07-29T04:56:09;100605.06;;;23.68;100.00
2268;BME280;11052;43.338;25.502;2022-07-29T04:58:36;100617.91;;;23.95;100.00
2268;BME280;11052;43.338;25.502;2022-07-29T05:01:06;100609.31;;;24.13;100.00
2268;BME280;11052;43.338;25.502;2022-07-29T05:03:36;100615.59;;;24.44;100.00
2268;BME280;11052;43.338;25.502;2022-07-29T05:06:04;100616.31;;;24.46;100.00
2268;BME280;11052;43.338;25.502;2022-07-29T05:08:31;100615.63;;;24.33;100.00
2268;BME280;11052;43.338;25.502;2022-07-29T05:10:58;100622.81;;;24.10;100.00
2268;BME280;11052;43.338;25.502;2022-07-29T05:13:26;100618.13;;;24.03;100.00
2268;BME280;11052;43.338;25.502;2022-07-29T05:15:54;100620.66;;;24.04;100.00
2268;BME280;11052;43.338;25.502;2022-07-29T05:18:24;100611.47;;;24.51;100.00
2268;BME280;11052;43.338;25.502;2022-07-29T05:20:53;100620.66;;;24.89;100.00
2268;BME280;11052;43.338;25.502;2022-07-29T05:23:20;100615.78;;;25.05;100.00
2268;BME280;11052;43.338;25.502;2022-07-29T05:25:47;100608.91;;;25.33;100.00
2268;BME280;11052;43.338;25.502;2022-07-29T05:28:16;100607.53;;;25.69;100.00
2268;BME280;11052;43.338;25.502;2022-07-29T05:30:46;100617.66;;;25.95;100.00
2268;BME280;11052;43.338;25.502;2022-07-29T05:33:13;100616.72;;;26.34;100.00
2268;BME280;11052;43.338;25.502;2022-07-29T05:35:41;100619.81;;;26.59;100.00
2268;BME280;11052;43.338;25.502;2022-07-29T05:38:10;100627.13;;;26.94;100.00
2268;BME280;11052;43.338;25.502;2022-07-29T05:40:38;100621.22;;;27.19;100.00
2268;BME280;11052;43.338;25.502;2022-07-29T05:43:06;100630.44;;;27.34;100.00
2268;BME280;11052;43.338;25.502;2022-07-29T05:45:34;100638.53;;;27.42;100.00
2268;BME280;11052;43.338;25.502;2022-07-29T05:48:01;100630.03;;;27.66;100.00
2268;BME280;11052;43.338;25.502;2022-07-29T05:50:28;100637.34;;;27.82;100.00
2268;BME280;11052;43.338;25.502;2022-07-29T05:52:56;100626.34;;;27.95;100.00
2268;BME280;11052;43.338;25.502;2022-07-29T05:55:24;100631.69;;;28.13;100.00
2268;BME280;11052;43.338;25.502;2022-07-29T05:57:52;100633.91;;;28.17;100.00
2268;BME280;11052;43.338;25.502;2022-07-29T06:00:20;100624.44;;;28.50;100.00
2268;BME280;11052;43.338;25.502;2022-07-29T06:02:48;100633.97;;;28.96;100.00
2268;BME280;11052;43.338;25.502;2022-07-29T06:05:17;100641.34;;;29.28;100.00
2268;BME280;11052;43.338;25.502;2022-07-29T06:07:45;100644.22;;;29.35;100.00
2268;BME280;11052;43.338;25.502;2022-07-29T06:10:13;100639.03;;;29.33;100.00
2268;BME280;11052;43.338;25.502;2022-07-29T06:12:41;100640.19;;;29.31;100.00
2268;BME280;11052;43.338;25.502;2022-07-29T06:15:09;100632.38;;;29.38;100.00
2268;BME280;11052;43.338;25.502;2022-07-29T06:17:38;100633.81;;;29.58;100.00
2268;BME280;11052;43.338;25.502;2022-07-29T06:20:06;100630.88;;;29.77;100.00
2268;BME280;11052;43.338;25.502;2022-07-29T06:22:33;100634.19;;;29.71;100.00
2268;BME280;11052;43.338;25.502;2022-07-29T06:25:01;100631.34;;;30.23;100.00
2268;BME280;11052;43.338;25.502;2022-07-29T06:27:29;100625.56;;;29.93;100.00
2268;BME280;11052;43.338;25.502;2022-07-29T06:29:58;100626.22;;;29.87;100.00
2268;BME280;11052;43.338;25.502;2022-07-29T06:32:25;100627.00;;;29.72;100.00
2268;BME280;11052;43.338;25.502;2022-07-29T06:34:52;100627.13;;;29.62;100.00
2268;BME280;11052;43.338;25.502;2022-07-29T06:37:19;100626.66;;;30.17;100.00
2268;BME280;11052;43.338;25.502;2022-07-29T06:39:48;100624.66;;;30.19;100.00
2268;BME280;11052;43.338;25.502;2022-07-29T06:42:36;100623.16;;;30.41;100.00
2268;BME280;11052;43.338;25.502;2022-07-29T06:45:07;100620.16;;;30.92;100.00
2268;BME280;11052;43.338;25.502;2022-07-29T06:47:35;100619.16;;;30.77;99.81
2268;BME280;11052;43.338;25.502;2022-07-29T06:50:03;100621.16;;;31.00;91.23
2268;BME280;11052;43.338;25.502;2022-07-29T06:52:34;100623.16;;;31.06;84.24
2268;BME280;11052;43.338;25.502;2022-07-29T06:55:03;100620.00;;;30.86;76.86
2268;BME280;11052;43.338;25.502;2022-07-29T06:57:30;100619.66;;;30.56;76.34
2268;BME280;11052;43.338;25.502;2022-07-29T06:59:59;100615.38;;;31.27;75.16
2268;BME280;11052;43.338;25.502;2022-07-29T07:02:40;100618.16;;;31.89;74.71
2268;BME280;11052;43.338;25.502;2022-07-29T07:05:08;100623.88;;;32.40;66.87
2268;BME280;11052;43.338;25.502;2022-07-29T07:07:35;100624.28;;;32.29;62.58
2268;BME280;11052;43.338;25.502;2022-07-29T07:10:06;100618.75;;;32.22;65.79
2268;BME280;11052;43.338;25.502;2022-07-29T07:12:41;100614.94;;;32.16;65.03
2268;BME280;11052;43.338;25.502;2022-07-29T07:15:09;100614.91;;;32.24;64.02
2268;BME280;11052;43.338;25.502;2022-07-29T07:17:38;100613.75;;;31.96;63.05
2268;BME280;11052;43.338;25.502;2022-07-29T07:20:07;100617.31;;;32.11;62.70
2268;BME280;11052;43.338;25.502;2022-07-29T07:22:35;100618.56;;;31.78;58.62
2268;BME280;11052;43.338;25.502;2022-07-29T07:25:03;100618.81;;;31.91;61.29
2268;BME280;11052;43.338;25.502;2022-07-29T07:27:31;100617.44;;;32.18;59.69
2268;BME280;11052;43.338;25.502;2022-07-29T07:29:58;100617.06;;;32.06;56.13
2268;BME280;11052;43.338;25.502;2022-07-29T07:32:25;100617.91;;;31.68;52.69
2268;BME280;11052;43.338;25.502;2022-07-29T07:34:56;100613.34;;;31.84;55.48
2268;BME280;11052;43.338;25.502;2022-07-29T07:37:27;100608.38;;;32.27;51.37
2268;BME280;11052;43.338;25.502;2022-07-29T07:39:56;100606.44;;;32.36;53.16
2268;BME280;11052;43.338;25.502;2022-07-29T07:42:24;100600.78;;;32.53;51.37
2268;BME280;11052;43.338;25.502;2022-07-29T07:44:52;100610.66;;;32.53;50.09
2268;BME280;11052;43.338;25.502;2022-07-29T07:47:21;100595.56;;;32.52;50.02
2268;BME280;11052;43.338;25.502;2022-07-29T07:49:50;100617.47;;;32.41;50.64
2268;BME280;11052;43.338;25.502;2022-07-29T07:52:22;100608.25;;;32.12;49.34
2268;BME280;11052;43.338;25.502;2022-07-29T07:54:52;100600.44;;;32.34;50.00
2268;BME280;11052;43.338;25.502;2022-07-29T07:57:20;100604.06;;;32.41;49.34
2268;BME280;11052;43.338;25.502;2022-07-29T07:59:51;100599.88;;;32.61;49.98
2268;BME280;11052;43.338;25.502;2022-07-29T08:02:26;100603.34;;;33.14;47.34
2268;BME280;11052;43.338;25.502;2022-07-29T08:05:14;100597.72;;;33.23;48.40
2268;BME280;11052;43.338;25.502;2022-07-29T08:07:56;100596.88;;;32.94;47.87
2268;BME280;11052;43.338;25.502;2022-07-29T08:10:26;100590.34;;;32.73;45.72
2268;BME280;11052;43.338;25.502;2022-07-29T08:13:12;100591.59;;;33.15;48.06
2268;BME280;11052;43.338;25.502;2022-07-29T08:15:40;100585.75;;;33.55;46.24
2268;BME280;11052;43.338;25.502;2022-07-29T08:18:11;100592.63;;;33.29;46.92
2268;BME280;11052;43.338;25.502;2022-07-29T08:20:42;100589.94;;;33.14;46.10
2268;BME280;11052;43.338;25.502;2022-07-29T08:23:16;100591.59;;;33.44;46.10
2268;BME280;11052;43.338;25.502;2022-07-29T08:25:46;100590.84;;;33.21;43.17
2268;BME280;11052;43.338;25.502;2022-07-29T08:28:20;100592.16;;;33.10;41.73
2268;BME280;11052;43.338;25.502;2022-07-29T08:31:11;100583.91;;;33.27;41.85
2268;BME280;11052;43.338;25.502;2022-07-29T08:33:45;100585.28;;;33.52;44.15
2268;BME280;11052;43.338;25.502;2022-07-29T08:36:15;100583.97;;;33.63;40.74
2268;BME280;11052;43.338;25.502;2022-07-29T08:38:43;100584.25;;;33.68;39.54
2268;BME280;11052;43.338;25.502;2022-07-29T08:41:18;100582.56;;;33.67;39.95
2268;BME280;11052;43.338;25.502;2022-07-29T08:43:58;100573.28;;;33.69;39.21
2268;BME280;11052;43.338;25.502;2022-07-29T08:46:32;100577.22;;;33.52;40.00
2268;BME280;11052;43.338;25.502;2022-07-29T08:49:01;100576.69;;;33.42;40.02
2268;BME280;11052;43.338;25.502;2022-07-29T08:51:30;100568.50;;;33.86;41.18
2268;BME280;11052;43.338;25.502;2022-07-29T08:54:10;100566.28;;;34.11;40.61
2268;BME280;11052;43.338;25.502;2022-07-29T08:56:43;100564.50;;;34.18;39.78
2268;BME280;11052;43.338;25.502;2022-07-29T08:59:12;100555.00;;;34.43;42.21
2268;BME280;11052;43.338;25.502;2022-07-29T09:01:47;100560.84;;;34.26;40.54
2268;BME280;11052;43.338;25.502;2022-07-29T09:04:24;100562.81;;;34.17;40.88
2268;BME280;11052;43.338;25.502;2022-07-29T09:06:57;100553.16;;;34.23;40.37
2268;BME280;11052;43.338;25.502;2022-07-29T09:09:36;100560.84;;;34.04;38.70
2268;BME280;11052;43.338;25.502;2022-07-29T09:12:11;100552.69;;;33.76;39.36
2268;BME280;11052;43.338;25.502;2022-07-29T09:14:53;100558.63;;;33.72;40.63
2268;BME280;11052;43.338;25.502;2022-07-29T09:17:45;100555.47;;;34.04;39.95
2268;BME280;11052;43.338;25.502;2022-07-29T09:20:22;100552.75;;;34.26;38.82
2268;BME280;11052;43.338;25.502;2022-07-29T09:23:17;100551.09;;;34.03;40.33
2268;BME280;11052;43.338;25.502;2022-07-29T09:26:14;100550.16;;;34.32;40.72
2268;BME280;11052;43.338;25.502;2022-07-29T09:29:07;100552.22;;;34.58;39.57
2268;BME280;11052;43.338;25.502;2022-07-29T09:31:58;100546.50;;;34.74;38.82
2268;BME280;11052;43.338;25.502;2022-07-29T09:34:37;100540.88;;;34.97;40.46
2268;BME280;11052;43.338;25.502;2022-07-29T09:37:27;100546.63;;;34.88;39.52
2268;BME280;11052;43.338;25.502;2022-07-29T09:40:14;100540.44;;;34.94;40.37
2268;BME280;11052;43.338;25.502;2022-07-29T09:43:13;100539.72;;;35.13;38.18
2268;BME280;11052;43.338;25.502;2022-07-29T09:45:52;100532.59;;;34.99;37.83
2268;BME280;11052;43.338;25.502;2022-07-29T09:48:29;100531.75;;;34.64;38.94
2268;BME280;11052;43.338;25.502;2022-07-29T09:51:19;100532.13;;;35.30;39.98
2268;BME280;11052;43.338;25.502;2022-07-29T09:53:56;100532.41;;;35.41;39.17
2268;BME280;11052;43.338;25.502;2022-07-29T09:56:41;100527.31;;;35.25;36.92
2268;BME280;11052;43.338;25.502;2022-07-29T09:59:20;100521.03;;;35.53;39.05
2268;BME280;11052;43.338;25.502;2022-07-29T10:01:57;100518.00;;;35.28;38.98
2268;BME280;11052;43.338;25.502;2022-07-29T10:04:40;100518.69;;;35.36;37.88
2268;BME280;11052;43.338;25.502;2022-07-29T10:07:12;100525.56;;;35.04;38.62
2268;BME280;11052;43.338;25.502;2022-07-29T10:09:52;100522.13;;;35.24;37.59
2268;BME280;11052;43.338;25.502;2022-07-29T10:12:25;100521.81;;;35.40;38.10
2268;BME280;11052;43.338;25.502;2022-07-29T10:15:05;100513.34;;;35.69;36.51
2268;BME280;11052;43.338;25.502;2022-07-29T10:17:40;100515.63;;;35.59;34.19
2268;BME280;11052;43.338;25.502;2022-07-29T10:20:16;100516.41;;;35.33;36.20
2268;BME280;11052;43.338;25.502;2022-07-29T10:22:59;100522.34;;;35.22;37.91
2268;BME280;11052;43.338;25.502;2022-07-29T10:25:42;100520.06;;;35.26;37.23
2268;BME280;11052;43.338;25.502;2022-07-29T10:28:21;100510.44;;;35.51;35.58
2268;BME280;11052;43.338;25.502;2022-07-29T10:31:05;100497.13;;;35.43;36.39
2268;BME280;11052;43.338;25.502;2022-07-29T10:33:59;100500.91;;;35.68;35.59
2268;BME280;11052;43.338;25.502;2022-07-29T10:36:50;100504.03;;;35.72;36.87
2268;BME280;11052;43.338;25.502;2022-07-29T10:39:43;100496.84;;;35.25;36.44
2268;BME280;11052;43.338;25.502;2022-07-29T10:42:27;100489.78;;;35.24;36.88
2268;BME280;11052;43.338;25.502;2022-07-29T10:45:08;100485.56;;;35.75;38.07
2268;BME280;11052;43.338;25.502;2022-07-29T10:48:04;100485.94;;;35.66;36.81
2268;BME280;11052;43.338;25.502;2022-07-29T10:51:03;100479.09;;;35.50;37.96
2268;BME280;11052;43.338;25.502;2022-07-29T10:53:51;100476.25;;;35.85;37.01
2268;BME280;11052;43.338;25.502;2022-07-29T10:56:28;100478.69;;;35.73;36.93
2268;BME280;11052;43.338;25.502;2022-07-29T10:59:28;100478.34;;;35.83;36.44
2268;BME280;11052;43.338;25.502;2022-07-29T11:02:07;100480.41;;;35.94;35.85
2268;BME280;11052;43.338;25.502;2022-07-29T11:05:07;100477.09;;;36.38;36.43
2268;BME280;11052;43.338;25.502;2022-07-29T11:11:31;100466.03;;;35.67;38.30
2268;BME280;11052;43.338;25.502;2022-07-29T11:14:20;100459.59;;;35.61;38.28
2268;BME280;11052;43.338;25.502;2022-07-29T11:17:26;100458.78;;;35.74;38.16
2268;BME280;11052;43.338;25.502;2022-07-29T11:20:34;100456.50;;;35.77;39.03
2268;BME280;11052;43.338;25.502;2022-07-29T11:23:24;100451.56;;;35.94;40.02
2268;BME280;11052;43.338;25.502;2022-07-29T11:26:17;100453.00;;;36.03;37.99
2268;BME280;11052;43.338;25.502;2022-07-29T11:28:53;100441.38;;;36.03;39.11
2268;BME280;11052;43.338;25.502;2022-07-29T11:31:36;100448.25;;;35.99;38.46
2268;BME280;11052;43.338;25.502;2022-07-29T11:34:16;100440.56;;;35.89;38.59
2268;BME280;11052;43.338;25.502;2022-07-29T11:37:19;100442.19;;;35.51;40.35
2268;BME280;11052;43.338;25.502;2022-07-29T11:42:40;100429.97;;;35.88;39.84
2268;BME280;11052;43.338;25.502;2022-07-29T11:45:09;100431.00;;;36.06;40.18
2268;BME280;11052;43.338;25.502;2022-07-29T11:47:40;100434.28;;;35.69;41.34
2268;BME280;11052;43.338;25.502;2022-07-29T11:50:10;100427.47;;;35.93;41.65
2268;BME280;11052;43.338;25.502;2022-07-29T11:52:40;100420.19;;;35.67;40.95
2268;BME280;11052;43.338;25.502;2022-07-29T11:55:12;100429.34;;;35.92;41.89
2268;BME280;11052;43.338;25.502;2022-07-29T11:57:48;100417.50;;;35.80;41.17
2268;BME280;11052;43.338;25.502;2022-07-29T12:00:27;100416.06;;;36.04;42.26
2268;BME280;11052;43.338;25.502;2022-07-29T12:02:55;100415.63;;;36.07;40.90
2268;BME280;11052;43.338;25.502;2022-07-29T12:05:33;100415.41;;;36.15;40.80
2268;BME280;11052;43.338;25.502;2022-07-29T12:08:11;100402.97;;;36.27;40.91
2268;BME280;11052;43.338;25.502;2022-07-29T12:10:39;100405.00;;;36.38;41.23
2268;BME280;11052;43.338;25.502;2022-07-29T12:13:07;100401.28;;;36.26;40.88
2268;BME280;11052;43.338;25.502;2022-07-29T12:18:13;100398.84;;;35.85;42.07
2268;BME280;11052;43.338;25.502;2022-07-29T12:20:41;100396.31;;;35.77;41.66
2268;BME280;11052;43.338;25.502;2022-07-29T12:23:10;100397.78;;;35.86;44.32
2268;BME280;11052;43.338;25.502;2022-07-29T12:28:14;100390.72;;;36.11;40.93
2268;BME280;11052;43.338;25.502;2022-07-29T12:35:49;100389.69;;;36.06;41.03
2268;BME280;11052;43.338;25.502;2022-07-29T12:38:19;100378.69;;;35.94;42.20
2268;BME280;11052;43.338;25.502;2022-07-29T12:40:47;100379.09;;;36.04;41.79
2268;BME280;11052;43.338;25.502;2022-07-29T12:43:17;100369.72;;;36.20;41.30
2268;BME280;11052;43.338;25.502;2022-07-29T12:45:46;100369.72;;;36.13;40.22
2268;BME280;11052;43.338;25.502;2022-07-29T12:48:14;100361.22;;;36.30;40.41
2268;BME280;11052;43.338;25.502;2022-07-29T12:50:55;100362.59;;;36.45;40.46
2268;BME280;11052;43.338;25.502;2022-07-29T12:53:25;100361.19;;;36.23;40.32
2268;BME280;11052;43.338;25.502;2022-07-29T12:55:53;100355.41;;;36.13;39.43
2268;BME280;11052;43.338;25.502;2022-07-29T13:01:04;100361.22;;;35.77;40.50
2268;BME280;11052;43.338;25.502;2022-07-29T13:03:49;100357.31;;;35.79;40.97
2268;BME280;11052;43.338;25.502;2022-07-29T13:06:44;100358.34;;;35.85;41.83
2268;BME280;11052;43.338;25.502;2022-07-29T13:09:14;100345.69;;;35.92;40.56
2268;BME280;11052;43.338;25.502;2022-07-29T13:11:44;100344.41;;;36.15;40.64
2268;BME280;11052;43.338;25.502;2022-07-29T13:14:14;100340.03;;;36.13;40.72
2268;BME280;11052;43.338;25.502;2022-07-29T13:17:03;100336.97;;;35.64;40.46
2268;BME280;11052;43.338;25.502;2022-07-29T13:19:35;100331.97;;;35.74;40.69
2268;BME280;11052;43.338;25.502;2022-07-29T13:22:04;100335.94;;;35.85;40.50
2268;BME280;11052;43.338;25.502;2022-07-29T13:24:33;100334.25;;;35.97;42.19
2268;BME280;11052;43.338;25.502;2022-07-29T13:27:00;100328.78;;;36.23;40.23
2268;BME280;11052;43.338;25.502;2022-07-29T13:29:28;100326.94;;;36.17;41.11
2268;BME280;11052;43.338;25.502;2022-07-29T13:31:55;100324.91;;;35.93;39.56
2268;BME280;11052;43.338;25.502;2022-07-29T13:34:22;100318.69;;;35.92;39.87